sensor_id;sensor_type;location;lat;lon;timestamp;pressure;altitude;pressure_sealevel;temperature;humidity
39363;BME280;25088;43.238;23.110;2023-12-20T00:00:13;96676.88;;;7.83;54.08
39363;BME280;25088;43.238;23.110;2023-12-20T00:02:39;96650.03;;;7.63;54.06
39363;BME280;25088;43.238;23.110;2023-12-20T00:05:05;96647.44;;;7.68;53.46
39363;BME280;25088;43.238;23.110;2023-12-20T00:07:30;96642.84;;;7.69;53.87
39363;BME280;25088;43.238;23.110;2023-12-20T00:09:56;96636.34;;;7.58;53.46
39363;BME280;25088;43.238;23.110;2023-12-20T00:12:21;96651.00;;;7.81;53.15
39363;BME280;25088;43.238;23.110;2023-12-20T00:14:47;96642.84;;;7.81;53.04
39363;BME280;25088;43.238;23.110;2023-12-20T00:17:12;96668.97;;;7.93;53.17
39363;BME280;25088;43.238;23.110;2023-12-20T00:19:38;96612.94;;;7.57;52.38
39363;BME280;25088;43.238;23.110;2023-12-20T00:22:04;96630.56;;;7.78;52.64
39363;BME280;25088;43.238;23.110;2023-12-20T00:24:29;96658.31;;;8.15;52.37
39363;BME280;25088;43.238;23.110;2023-12-20T00:26:54;96615.44;;;7.94;51.95
39363;BME280;25088;43.238;23.110;2023-12-20T00:29:20;96660.94;;;8.10;52.00
39363;BME280;25088;43.238;23.110;2023-12-20T00:31:45;96666.59;;;8.20;52.70
39363;BME280;25088;43.238;23.110;2023-12-20T00:34:11;96655.97;;;7.95;53.24
39363;BME280;25088;43.238;23.110;2023-12-20T00:36:36;96635.75;;;7.80;53.35
39363;BME280;25088;43.238;23.110;2023-12-20T00:39:02;96632.34;;;7.84;52.35
39363;BME280;25088;43.238;23.110;2023-12-20T00:41:28;96656.47;;;8.16;52.31
39363;BME280;25088;43.238;23.110;2023-12-20T00:43:53;96636.47;;;7.98;52.93
39363;BME280;25088;43.238;23.110;2023-12-20T00:46:19;96640.03;;;8.11;53.20
39363;BME280;25088;43.238;23.110;2023-12-20T00:48:44;96631.50;;;7.84;53.64
39363;BME280;25088;43.238;23.110;2023-12-20T00:51:11;96636.13;;;7.95;52.66
39363;BME280;25088;43.238;23.110;2023-12-20T00:53:36;96639.19;;;7.87;52.65
39363;BME280;25088;43.238;23.110;2023-12-20T00:56:02;96624.78;;;7.98;52.91
39363;BME280;25088;43.238;23.110;2023-12-20T00:58:27;96611.44;;;7.96;52.95
39363;BME280;25088;43.238;23.110;2023-12-20T01:00:53;96603.88;;;7.87;52.45
39363;BME280;25088;43.238;23.110;2023-12-20T01:03:19;96576.44;;;7.76;52.07
39363;BME280;25088;43.238;23.110;2023-12-20T01:05:44;96611.53;;;8.01;52.81
39363;BME280;25088;43.238;23.110;2023-12-20T01:08:10;96602.44;;;7.72;53.80
39363;BME280;25088;43.238;23.110;2023-12-20T01:10:35;96601.38;;;7.62;53.39
39363;BME280;25088;43.238;23.110;2023-12-20T01:13:00;96588.13;;;7.54;53.29
39363;BME280;25088;43.238;23.110;2023-12-20T01:15:26;96581.75;;;7.60;53.31
39363;BME280;25088;43.238;23.110;2023-12-20T01:17:51;96555.53;;;7.54;52.58
39363;BME280;25088;43.238;23.110;2023-12-20T01:20:17;96584.59;;;7.65;52.27
39363;BME280;25088;43.238;23.110;2023-12-20T01:22:44;96552.34;;;7.68;52.04
39363;BME280;25088;43.238;23.110;2023-12-20T01:25:11;96573.16;;;7.86;52.27
39363;BME280;25088;43.238;23.110;2023-12-20T01:27:36;96560.13;;;7.88;51.72
39363;BME280;25088;43.238;23.110;2023-12-20T01:30:02;96567.75;;;8.15;51.80
39363;BME280;25088;43.238;23.110;2023-12-20T01:32:27;96553.41;;;7.91;53.13
39363;BME280;25088;43.238;23.110;2023-12-20T01:34:53;96544.31;;;7.73;52.19
39363;BME280;25088;43.238;23.110;2023-12-20T01:37:18;96565.81;;;7.87;52.58
39363;BME280;25088;43.238;23.110;2023-12-20T01:39:44;96549.16;;;7.71;52.98
39363;BME280;25088;43.238;23.110;2023-12-20T01:42:09;96562.75;;;7.71;54.86
39363;BME280;25088;43.238;23.110;2023-12-20T01:44:35;96552.56;;;7.78;52.90
39363;BME280;25088;43.238;23.110;2023-12-20T01:47:00;96545.63;;;7.71;53.20
39363;BME280;25088;43.238;23.110;2023-12-20T01:49:26;96530.34;;;7.70;53.39
39363;BME280;25088;43.238;23.110;2023-12-20T01:51:53;96537.69;;;7.69;55.14
39363;BME280;25088;43.238;23.110;2023-12-20T01:54:19;96531.78;;;7.72;53.82
39363;BME280;25088;43.238;23.110;2023-12-20T01:56:45;96525.88;;;7.75;53.24
39363;BME280;25088;43.238;23.110;2023-12-20T01:59:11;96490.47;;;7.47;53.02
39363;BME280;25088;43.238;23.110;2023-12-20T02:01:37;96524.47;;;7.49;54.00
39363;BME280;25088;43.238;23.110;2023-12-20T02:04:03;96518.81;;;7.51;53.53
39363;BME280;25088;43.238;23.110;2023-12-20T02:06:30;96526.13;;;7.62;52.62
39363;BME280;25088;43.238;23.110;2023-12-20T02:08:58;96513.59;;;7.73;52.10
39363;BME280;25088;43.238;23.110;2023-12-20T02:11:25;96513.31;;;7.98;50.80
39363;BME280;25088;43.238;23.110;2023-12-20T02:13:51;96500.72;;;7.68;52.41
39363;BME280;25088;43.238;23.110;2023-12-20T02:16:17;96516.91;;;7.63;53.08
39363;BME280;25088;43.238;23.110;2023-12-20T02:18:43;96514.06;;;7.35;55.37
39363;BME280;25088;43.238;23.110;2023-12-20T02:21:09;96491.50;;;7.11;54.72
39363;BME280;25088;43.238;23.110;2023-12-20T02:23:35;96477.34;;;7.20;53.48
39363;BME280;25088;43.238;23.110;2023-12-20T02:26:01;96500.16;;;7.31;53.36
39363;BME280;25088;43.238;23.110;2023-12-20T02:28:26;96480.41;;;7.36;55.17
39363;BME280;25088;43.238;23.110;2023-12-20T02:30:52;96462.13;;;7.43;53.05
39363;BME280;25088;43.238;23.110;2023-12-20T02:33:17;96469.81;;;7.46;52.75
39363;BME280;25088;43.238;23.110;2023-12-20T02:35:43;96471.44;;;7.47;52.61
39363;BME280;25088;43.238;23.110;2023-12-20T02:38:08;96440.88;;;7.28;53.43
39363;BME280;25088;43.238;23.110;2023-12-20T02:40:34;96468.84;;;7.40;52.50
39363;BME280;25088;43.238;23.110;2023-12-20T02:42:59;96456.09;;;7.53;51.09
39363;BME280;25088;43.238;23.110;2023-12-20T02:45:26;96466.69;;;7.77;51.93
39363;BME280;25088;43.238;23.110;2023-12-20T02:47:51;96461.50;;;7.64;52.25
39363;BME280;25088;43.238;23.110;2023-12-20T02:50:17;96458.81;;;7.53;52.73
39363;BME280;25088;43.238;23.110;2023-12-20T02:52:44;96453.84;;;7.61;51.58
39363;BME280;25088;43.238;23.110;2023-12-20T02:55:10;96459.84;;;7.63;51.87
39363;BME280;25088;43.238;23.110;2023-12-20T02:57:36;96441.78;;;7.45;52.37
39363;BME280;25088;43.238;23.110;2023-12-20T03:00:02;96452.41;;;7.59;52.78
39363;BME280;25088;43.238;23.110;2023-12-20T03:02:27;96440.63;;;7.53;52.75
39363;BME280;25088;43.238;23.110;2023-12-20T03:04:53;96426.22;;;7.53;51.89
39363;BME280;25088;43.238;23.110;2023-12-20T03:07:19;96443.19;;;7.71;51.80
39363;BME280;25088;43.238;23.110;2023-12-20T03:09:45;96443.97;;;7.84;51.92
39363;BME280;25088;43.238;23.110;2023-12-20T03:12:10;96432.75;;;7.80;51.64
39363;BME280;25088;43.238;23.110;2023-12-20T03:14:35;96434.06;;;7.77;52.09
39363;BME280;25088;43.238;23.110;2023-12-20T03:17:01;96428.50;;;7.84;52.07
39363;BME280;25088;43.238;23.110;2023-12-20T03:19:26;96424.59;;;7.80;51.16
39363;BME280;25088;43.238;23.110;2023-12-20T03:21:52;96440.25;;;7.61;53.21
39363;BME280;25088;43.238;23.110;2023-12-20T03:24:18;96399.31;;;7.28;53.27
39363;BME280;25088;43.238;23.110;2023-12-20T03:26:44;96407.34;;;7.46;51.64
39363;BME280;25088;43.238;23.110;2023-12-20T03:29:09;96432.91;;;7.73;52.58
39363;BME280;25088;43.238;23.110;2023-12-20T03:31:35;96423.59;;;7.58;53.59
39363;BME280;25088;43.238;23.110;2023-12-20T03:34:00;96401.38;;;7.61;51.86
39363;BME280;25088;43.238;23.110;2023-12-20T03:36:25;96399.72;;;7.60;52.43
39363;BME280;25088;43.238;23.110;2023-12-20T03:38:51;96407.66;;;7.61;52.03
39363;BME280;25088;43.238;23.110;2023-12-20T03:41:16;96385.19;;;7.66;51.43
39363;BME280;25088;43.238;23.110;2023-12-20T03:43:42;96388.69;;;7.78;51.74
39363;BME280;25088;43.238;23.110;2023-12-20T03:46:08;96395.31;;;7.70;52.44
39363;BME280;25088;43.238;23.110;2023-12-20T03:48:34;96383.50;;;7.76;51.24
39363;BME280;25088;43.238;23.110;2023-12-20T03:50:59;96382.53;;;7.83;51.21
39363;BME280;25088;43.238;23.110;2023-12-20T03:53:24;96379.38;;;7.74;51.68
39363;BME280;25088;43.238;23.110;2023-12-20T03:55:50;96387.72;;;7.84;52.12
39363;BME280;25088;43.238;23.110;2023-12-20T03:58:15;96390.59;;;7.77;51.26
39363;BME280;25088;43.238;23.110;2023-12-20T04:00:41;96383.63;;;7.70;51.57
39363;BME280;25088;43.238;23.110;2023-12-20T04:03:06;96387.50;;;7.86;51.72
39363;BME280;25088;43.238;23.110;2023-12-20T04:05:32;96380.88;;;8.10;51.46
39363;BME280;25088;43.238;23.110;2023-12-20T04:07:58;96277.16;;;7.56;50.96
39363;BME280;25088;43.238;23.110;2023-12-20T04:10:23;96376.28;;;8.11;51.11
39363;BME280;25088;43.238;23.110;2023-12-20T04:12:49;96369.91;;;8.05;52.24
39363;BME280;25088;43.238;23.110;2023-12-20T04:15:14;96336.25;;;7.77;51.79
39363;BME280;25088;43.238;23.110;2023-12-20T04:17:39;96362.28;;;7.62;52.91
39363;BME280;25088;43.238;23.110;2023-12-20T04:20:05;96359.28;;;7.75;52.22
39363;BME280;25088;43.238;23.110;2023-12-20T04:22:31;96346.28;;;7.77;52.06
39363;BME280;25088;43.238;23.110;2023-12-20T04:24:57;96345.97;;;7.90;51.42
39363;BME280;25088;43.238;23.110;2023-12-20T04:27:22;96351.72;;;8.06;51.27
39363;BME280;25088;43.238;23.110;2023-12-20T04:29:47;96329.25;;;7.82;51.81
39363;BME280;25088;43.238;23.110;2023-12-20T04:32:13;96351.13;;;7.75;52.98
39363;BME280;25088;43.238;23.110;2023-12-20T04:34:38;96346.75;;;7.74;51.38
39363;BME280;25088;43.238;23.110;2023-12-20T04:37:04;96352.78;;;7.76;51.74
39363;BME280;25088;43.238;23.110;2023-12-20T04:39:29;96326.66;;;7.75;51.86
39363;BME280;25088;43.238;23.110;2023-12-20T04:41:55;96350.84;;;7.88;53.08
39363;BME280;25088;43.238;23.110;2023-12-20T04:44:20;96351.94;;;7.47;52.99
39363;BME280;25088;43.238;23.110;2023-12-20T04:46:46;96344.91;;;7.22;55.50
39363;BME280;25088;43.238;23.110;2023-12-20T04:49:11;96342.38;;;7.44;55.41
39363;BME280;25088;43.238;23.110;2023-12-20T04:51:36;96315.88;;;7.23;52.57
39363;BME280;25088;43.238;23.110;2023-12-20T04:54:03;96253.69;;;7.10;52.83
39363;BME280;25088;43.238;23.110;2023-12-20T04:56:28;96346.34;;;7.54;52.97
39363;BME280;25088;43.238;23.110;2023-12-20T04:58:54;96334.00;;;7.46;53.05
39363;BME280;25088;43.238;23.110;2023-12-20T05:01:19;96342.16;;;7.74;52.34
39363;BME280;25088;43.238;23.110;2023-12-20T05:03:45;96342.00;;;7.53;53.86
39363;BME280;25088;43.238;23.110;2023-12-20T05:06:11;96318.06;;;7.38;52.94
39363;BME280;25088;43.238;23.110;2023-12-20T05:08:36;96316.28;;;7.43;53.23
39363;BME280;25088;43.238;23.110;2023-12-20T05:11:02;96332.25;;;7.28;54.78
39363;BME280;25088;43.238;23.110;2023-12-20T05:13:28;96331.66;;;7.38;53.15
39363;BME280;25088;43.238;23.110;2023-12-20T05:15:54;96324.00;;;7.63;52.92
39363;BME280;25088;43.238;23.110;2023-12-20T05:18:20;96332.41;;;7.62;52.19
39363;BME280;25088;43.238;23.110;2023-12-20T05:20:46;96336.66;;;7.58;52.32
39363;BME280;25088;43.238;23.110;2023-12-20T05:23:11;96308.19;;;7.60;52.92
39363;BME280;25088;43.238;23.110;2023-12-20T05:25:38;96320.53;;;7.51;52.24
39363;BME280;25088;43.238;23.110;2023-12-20T05:28:04;96306.97;;;7.39;53.44
39363;BME280;25088;43.238;23.110;2023-12-20T05:30:30;96331.78;;;7.31;54.16
39363;BME280;25088;43.238;23.110;2023-12-20T05:32:55;96320.56;;;7.68;51.68
39363;BME280;25088;43.238;23.110;2023-12-20T05:35:21;96320.22;;;7.64;52.75
39363;BME280;25088;43.238;23.110;2023-12-20T05:37:48;96330.41;;;7.57;52.89
39363;BME280;25088;43.238;23.110;2023-12-20T05:40:14;96292.19;;;7.35;53.13
39363;BME280;25088;43.238;23.110;2023-12-20T05:42:39;96315.84;;;7.63;52.96
39363;BME280;25088;43.238;23.110;2023-12-20T05:45:05;96307.34;;;7.60;52.90
39363;BME280;25088;43.238;23.110;2023-12-20T05:47:31;96304.22;;;7.51;52.17
39363;BME280;25088;43.238;23.110;2023-12-20T05:49:56;96305.50;;;7.48;53.15
39363;BME280;25088;43.238;23.110;2023-12-20T05:52:22;96311.16;;;7.59;52.69
39363;BME280;25088;43.238;23.110;2023-12-20T05:54:47;96305.47;;;7.60;52.75
39363;BME280;25088;43.238;23.110;2023-12-20T05:57:13;96301.63;;;7.73;52.27
39363;BME280;25088;43.238;23.110;2023-12-20T05:59:38;96292.81;;;7.66;52.05
39363;BME280;25088;43.238;23.110;2023-12-20T06:02:04;96278.91;;;7.62;52.43
39363;BME280;25088;43.238;23.110;2023-12-20T06:04:30;96297.22;;;7.55;53.66
39363;BME280;25088;43.238;23.110;2023-12-20T06:06:56;96296.72;;;7.30;53.56
39363;BME280;25088;43.238;23.110;2023-12-20T06:09:21;96289.63;;;7.29;54.16
39363;BME280;25088;43.238;23.110;2023-12-20T06:11:47;96287.25;;;7.61;54.06
39363;BME280;25088;43.238;23.110;2023-12-20T06:14:12;96295.94;;;7.17;53.43
39363;BME280;25088;43.238;23.110;2023-12-20T06:16:38;96287.47;;;7.02;55.02
39363;BME280;25088;43.238;23.110;2023-12-20T06:19:03;96295.31;;;7.27;53.66
39363;BME280;25088;43.238;23.110;2023-12-20T06:21:29;96287.50;;;7.31;53.46
39363;BME280;25088;43.238;23.110;2023-12-20T06:23:54;96267.53;;;7.65;52.50
39363;BME280;25088;43.238;23.110;2023-12-20T06:26:20;96267.00;;;7.23;54.06
39363;BME280;25088;43.238;23.110;2023-12-20T06:28:45;96268.22;;;7.44;52.19
39363;BME280;25088;43.238;23.110;2023-12-20T06:31:11;96271.56;;;7.63;51.15
39363;BME280;25088;43.238;23.110;2023-12-20T06:33:36;96270.59;;;7.69;51.65
39363;BME280;25088;43.238;23.110;2023-12-20T06:36:02;96265.88;;;7.64;51.70
39363;BME280;25088;43.238;23.110;2023-12-20T06:38:28;96275.84;;;7.75;52.42
39363;BME280;25088;43.238;23.110;2023-12-20T06:40:55;96276.91;;;8.20;50.60
39363;BME280;25088;43.238;23.110;2023-12-20T06:43:22;96264.34;;;9.08;49.12
39363;BME280;25088;43.238;23.110;2023-12-20T06:45:47;96252.53;;;9.68;47.51
39363;BME280;25088;43.238;23.110;2023-12-20T06:48:13;96252.56;;;10.59;45.92
39363;BME280;25088;43.238;23.110;2023-12-20T06:50:39;96241.28;;;10.98;44.77
39363;BME280;25088;43.238;23.110;2023-12-20T06:53:06;96230.31;;;11.46;42.25
39363;BME280;25088;43.238;23.110;2023-12-20T06:55:33;96235.09;;;11.86;42.02
39363;BME280;25088;43.238;23.110;2023-12-20T06:58:00;96221.97;;;12.59;41.32
39363;BME280;25088;43.238;23.110;2023-12-20T07:00:25;96231.41;;;13.18;39.97
39363;BME280;25088;43.238;23.110;2023-12-20T07:02:51;96229.69;;;13.42;38.98
39363;BME280;25088;43.238;23.110;2023-12-20T07:05:17;96206.22;;;14.15;37.83
39363;BME280;25088;43.238;23.110;2023-12-20T07:07:45;96209.19;;;13.84;37.54
39363;BME280;25088;43.238;23.110;2023-12-20T07:10:11;96223.94;;;14.33;36.26
39363;BME280;25088;43.238;23.110;2023-12-20T07:12:37;96201.56;;;14.50;38.07
39363;BME280;25088;43.238;23.110;2023-12-20T07:15:02;96193.78;;;15.10;37.31
39363;BME280;25088;43.238;23.110;2023-12-20T07:17:28;96191.97;;;15.00;37.11
39363;BME280;25088;43.238;23.110;2023-12-20T07:19:53;96206.09;;;15.17;35.21
39363;BME280;25088;43.238;23.110;2023-12-20T07:22:19;96172.38;;;15.73;34.78
39363;BME280;25088;43.238;23.110;2023-12-20T07:24:44;96194.56;;;15.82;35.41
39363;BME280;25088;43.238;23.110;2023-12-20T07:27:11;96193.78;;;15.34;35.35
39363;BME280;25088;43.238;23.110;2023-12-20T07:29:36;96184.22;;;15.50;34.37
39363;BME280;25088;43.238;23.110;2023-12-20T07:32:02;96195.44;;;15.11;34.97
39363;BME280;25088;43.238;23.110;2023-12-20T07:34:27;96187.34;;;15.43;38.74
39363;BME280;25088;43.238;23.110;2023-12-20T07:36:52;96174.84;;;15.08;35.72
39363;BME280;25088;43.238;23.110;2023-12-20T07:39:18;96162.72;;;14.85;36.44
39363;BME280;25088;43.238;23.110;2023-12-20T07:41:44;96178.97;;;14.58;36.41
39363;BME280;25088;43.238;23.110;2023-12-20T07:44:09;96184.03;;;14.40;37.39
39363;BME280;25088;43.238;23.110;2023-12-20T07:46:35;96144.25;;;14.91;36.05
39363;BME280;25088;43.238;23.110;2023-12-20T07:49:00;96182.84;;;14.81;37.31
39363;BME280;25088;43.238;23.110;2023-12-20T07:51:26;96189.09;;;14.62;37.33
39363;BME280;25088;43.238;23.110;2023-12-20T07:53:51;96187.31;;;14.47;36.74
39363;BME280;25088;43.238;23.110;2023-12-20T07:56:18;96179.94;;;14.72;36.78
39363;BME280;25088;43.238;23.110;2023-12-20T07:58:44;96179.03;;;14.53;35.52
39363;BME280;25088;43.238;23.110;2023-12-20T08:01:11;96161.53;;;14.38;36.65
39363;BME280;25088;43.238;23.110;2023-12-20T08:03:36;96177.16;;;14.09;39.15
39363;BME280;25088;43.238;23.110;2023-12-20T08:06:02;96171.03;;;14.17;39.38
39363;BME280;25088;43.238;23.110;2023-12-20T08:08:28;96176.94;;;14.34;38.59
39363;BME280;25088;43.238;23.110;2023-12-20T08:10:53;96180.56;;;14.64;37.92
39363;BME280;25088;43.238;23.110;2023-12-20T08:13:19;96168.16;;;14.66;39.31
39363;BME280;25088;43.238;23.110;2023-12-20T08:15:44;96167.69;;;14.59;40.59
39363;BME280;25088;43.238;23.110;2023-12-20T08:18:09;96173.22;;;14.83;39.10
39363;BME280;25088;43.238;23.110;2023-12-20T08:20:35;96175.47;;;14.76;39.05
39363;BME280;25088;43.238;23.110;2023-12-20T08:23:00;96147.66;;;15.07;38.46
39363;BME280;25088;43.238;23.110;2023-12-20T08:25:26;96152.06;;;15.69;37.29
39363;BME280;25088;43.238;23.110;2023-12-20T08:27:52;96143.34;;;16.33;37.34
39363;BME280;25088;43.238;23.110;2023-12-20T08:30:18;96147.53;;;17.45;35.66
39363;BME280;25088;43.238;23.110;2023-12-20T08:32:49;96127.16;;;18.50;33.53
39363;BME280;25088;43.238;23.110;2023-12-20T08:35:15;96128.94;;;19.82;30.99
39363;BME280;25088;43.238;23.110;2023-12-20T08:37:40;96108.72;;;19.73;30.84
39363;BME280;25088;43.238;23.110;2023-12-20T08:40:06;96123.53;;;19.03;31.70
39363;BME280;25088;43.238;23.110;2023-12-20T08:42:33;96121.63;;;18.50;31.75
39363;BME280;25088;43.238;23.110;2023-12-20T08:44:58;96125.91;;;18.11;32.12
39363;BME280;25088;43.238;23.110;2023-12-20T08:47:24;96115.53;;;17.94;30.80
39363;BME280;25088;43.238;23.110;2023-12-20T08:49:50;96132.13;;;18.17;32.40
39363;BME280;25088;43.238;23.110;2023-12-20T08:52:15;96108.34;;;18.07;31.17
39363;BME280;25088;43.238;23.110;2023-12-20T08:54:40;96101.72;;;17.94;30.39
39363;BME280;25088;43.238;23.110;2023-12-20T08:57:06;96107.81;;;17.69;31.42
39363;BME280;25088;43.238;23.110;2023-12-20T08:59:32;96109.88;;;17.63;31.37
39363;BME280;25088;43.238;23.110;2023-12-20T09:01:57;96108.13;;;17.31;32.11
39363;BME280;25088;43.238;23.110;2023-12-20T09:04:23;96108.94;;;17.81;32.13
39363;BME280;25088;43.238;23.110;2023-12-20T09:06:49;96091.16;;;17.38;33.49
39363;BME280;25088;43.238;23.110;2023-12-20T09:09:14;96071.16;;;17.18;32.22
39363;BME280;25088;43.238;23.110;2023-12-20T09:11:40;96103.72;;;17.30;32.32
39363;BME280;25088;43.238;23.110;2023-12-20T09:14:06;96090.66;;;17.22;32.28
39363;BME280;25088;43.238;23.110;2023-12-20T09:16:31;96090.91;;;17.48;32.08
39363;BME280;25088;43.238;23.110;2023-12-20T09:18:57;96075.56;;;17.55;32.77
39363;BME280;25088;43.238;23.110;2023-12-20T09:21:23;96076.22;;;18.73;31.55
39363;BME280;25088;43.238;23.110;2023-12-20T09:23:48;96061.16;;;19.97;30.40
39363;BME280;25088;43.238;23.110;2023-12-20T09:26:14;96047.09;;;21.43;28.69
39363;BME280;25088;43.238;23.110;2023-12-20T09:28:39;96038.66;;;22.48;27.68
39363;BME280;25088;43.238;23.110;2023-12-20T09:31:06;96042.13;;;23.02;26.86
39363;BME280;25088;43.238;23.110;2023-12-20T09:33:33;96018.47;;;23.20;26.56
39363;BME280;25088;43.238;23.110;2023-12-20T09:35:59;96012.13;;;24.01;26.09
39363;BME280;25088;43.238;23.110;2023-12-20T09:38:24;96016.25;;;24.47;25.46
39363;BME280;25088;43.238;23.110;2023-12-20T09:40:50;96009.69;;;25.02;25.37
39363;BME280;25088;43.238;23.110;2023-12-20T09:43:19;96018.28;;;25.45;24.78
39363;BME280;25088;43.238;23.110;2023-12-20T09:45:48;96002.09;;;25.03;24.68
39363;BME280;25088;43.238;23.110;2023-12-20T09:48:17;96001.72;;;24.41;25.11
39363;BME280;25088;43.238;23.110;2023-12-20T09:50:44;95994.44;;;23.81;25.71
39363;BME280;25088;43.238;23.110;2023-12-20T09:53:12;95993.25;;;23.41;26.02
39363;BME280;25088;43.238;23.110;2023-12-20T09:55:41;95994.00;;;23.79;25.76
39363;BME280;25088;43.238;23.110;2023-12-20T09:58:07;95981.00;;;23.06;26.86
39363;BME280;25088;43.238;23.110;2023-12-20T10:00:34;95994.72;;;22.29;27.66
39363;BME280;25088;43.238;23.110;2023-12-20T10:03:00;95993.94;;;21.53;28.21
39363;BME280;25088;43.238;23.110;2023-12-20T10:05:31;96001.03;;;20.53;29.25
39363;BME280;25088;43.238;23.110;2023-12-20T10:07:57;95989.13;;;19.88;30.55
39363;BME280;25088;43.238;23.110;2023-12-20T10:10:23;96001.19;;;19.41;31.11
39363;BME280;25088;43.238;23.110;2023-12-20T10:13:05;95970.31;;;18.73;31.68
39363;BME280;25088;43.238;23.110;2023-12-20T10:15:33;95972.00;;;18.43;32.30
39363;BME280;25088;43.238;23.110;2023-12-20T10:17:59;95980.50;;;18.15;32.69
39363;BME280;25088;43.238;23.110;2023-12-20T10:20:25;95973.38;;;18.23;32.95
39363;BME280;25088;43.238;23.110;2023-12-20T10:22:51;95973.59;;;18.04;33.14
39363;BME280;25088;43.238;23.110;2023-12-20T10:25:20;95978.25;;;17.95;33.71
39363;BME280;25088;43.238;23.110;2023-12-20T10:27:45;95968.16;;;17.68;34.64
39363;BME280;25088;43.238;23.110;2023-12-20T10:30:11;95970.13;;;17.67;34.36
39363;BME280;25088;43.238;23.110;2023-12-20T10:32:37;95939.59;;;17.41;34.02
39363;BME280;25088;43.238;23.110;2023-12-20T10:35:03;95966.13;;;17.15;35.47
39363;BME280;25088;43.238;23.110;2023-12-20T10:37:28;95937.28;;;16.98;35.48
39363;BME280;25088;43.238;23.110;2023-12-20T10:39:54;95944.94;;;17.24;34.57
39363;BME280;25088;43.238;23.110;2023-12-20T10:42:24;95946.06;;;17.45;34.65
39363;BME280;25088;43.238;23.110;2023-12-20T10:44:51;95939.31;;;17.51;34.68
39363;BME280;25088;43.238;23.110;2023-12-20T10:47:19;95926.75;;;17.68;34.01
39363;BME280;25088;43.238;23.110;2023-12-20T10:49:45;95917.03;;;17.70;34.92
39363;BME280;25088;43.238;23.110;2023-12-20T10:52:12;95926.19;;;17.79;35.12
39363;BME280;25088;43.238;23.110;2023-12-20T10:54:41;95926.25;;;17.88;35.15
39363;BME280;25088;43.238;23.110;2023-12-20T10:57:07;95912.22;;;18.07;34.42
39363;BME280;25088;43.238;23.110;2023-12-20T10:59:39;95904.78;;;18.25;34.79
39363;BME280;25088;43.238;23.110;2023-12-20T11:02:05;95916.38;;;18.44;34.16
39363;BME280;25088;43.238;23.110;2023-12-20T11:04:38;95896.09;;;18.57;33.28
39363;BME280;25088;43.238;23.110;2023-12-20T11:07:19;95878.41;;;19.45;32.90
39363;BME280;25088;43.238;23.110;2023-12-20T11:09:58;95901.47;;;20.69;31.21
39363;BME280;25088;43.238;23.110;2023-12-20T11:12:47;95891.13;;;22.19;29.22
39363;BME280;25088;43.238;23.110;2023-12-20T11:15:14;95876.53;;;23.64;27.79
39363;BME280;25088;43.238;23.110;2023-12-20T11:17:40;95879.34;;;24.91;26.16
39363;BME280;25088;43.238;23.110;2023-12-20T11:20:09;95854.41;;;25.75;25.23
39363;BME280;25088;43.238;23.110;2023-12-20T11:22:37;95841.59;;;25.94;25.25
39363;BME280;25088;43.238;23.110;2023-12-20T11:25:08;95854.25;;;25.68;25.20
39363;BME280;25088;43.238;23.110;2023-12-20T11:27:35;95856.81;;;24.48;25.98
39363;BME280;25088;43.238;23.110;2023-12-20T11:30:03;95850.63;;;23.08;27.80
39363;BME280;25088;43.238;23.110;2023-12-20T11:32:34;95863.00;;;23.10;28.25
39363;BME280;25088;43.238;23.110;2023-12-20T11:35:22;95851.91;;;22.86;27.65
39363;BME280;25088;43.238;23.110;2023-12-20T11:37:46;95845.72;;;22.15;29.17
39363;BME280;25088;43.238;23.110;2023-12-20T11:40:17;95834.91;;;22.02;28.84
39363;BME280;25088;43.238;23.110;2023-12-20T11:42:49;95851.78;;;21.84;29.68
39363;BME280;25088;43.238;23.110;2023-12-20T11:45:16;95849.97;;;22.74;29.16
39363;BME280;25088;43.238;23.110;2023-12-20T11:47:46;95846.09;;;24.03;28.06
39363;BME280;25088;43.238;23.110;2023-12-20T11:50:12;95822.66;;;24.71;26.64
39363;BME280;25088;43.238;23.110;2023-12-20T11:52:38;95820.97;;;25.40;26.48
39363;BME280;25088;43.238;23.110;2023-12-20T11:55:04;95814.44;;;25.52;25.52
39363;BME280;25088;43.238;23.110;2023-12-20T11:57:30;95808.69;;;26.10;25.48
39363;BME280;25088;43.238;23.110;2023-12-20T11:59:56;95791.81;;;26.03;25.48
39363;BME280;25088;43.238;23.110;2023-12-20T12:02:21;95800.47;;;26.70;24.74
39363;BME280;25088;43.238;23.110;2023-12-20T12:04:49;95793.47;;;26.84;24.79
39363;BME280;25088;43.238;23.110;2023-12-20T12:07:16;95780.25;;;26.80;24.82
39363;BME280;25088;43.238;23.110;2023-12-20T12:09:42;95781.91;;;27.49;24.06
39363;BME280;25088;43.238;23.110;2023-12-20T12:12:08;95773.72;;;27.33;24.05
39363;BME280;25088;43.238;23.110;2023-12-20T12:14:33;95773.59;;;26.13;24.81
39363;BME280;25088;43.238;23.110;2023-12-20T12:17:00;95775.72;;;25.96;24.94
39363;BME280;25088;43.238;23.110;2023-12-20T12:19:26;95784.00;;;26.92;24.98
39363;BME280;25088;43.238;23.110;2023-12-20T12:22:12;95771.19;;;27.58;23.73
39363;BME280;25088;43.238;23.110;2023-12-20T12:24:48;95772.84;;;27.63;23.50
39363;BME280;25088;43.238;23.110;2023-12-20T12:27:15;95777.19;;;27.94;23.28
39363;BME280;25088;43.238;23.110;2023-12-20T12:29:41;95767.69;;;28.05;23.24
39363;BME280;25088;43.238;23.110;2023-12-20T12:32:25;95772.84;;;28.00;22.98
39363;BME280;25088;43.238;23.110;2023-12-20T12:34:50;95761.22;;;27.61;22.91
39363;BME280;25088;43.238;23.110;2023-12-20T12:37:16;95751.63;;;28.02;22.84
39363;BME280;25088;43.238;23.110;2023-12-20T12:39:41;95768.91;;;28.08;22.52
39363;BME280;25088;43.238;23.110;2023-12-20T12:42:07;95762.91;;;28.13;22.52
39363;BME280;25088;43.238;23.110;2023-12-20T12:44:32;95754.22;;;28.25;21.84
39363;BME280;25088;43.238;23.110;2023-12-20T12:46:58;95762.56;;;27.74;22.69
39363;BME280;25088;43.238;23.110;2023-12-20T12:49:23;95770.13;;;26.72;23.54